Time;durP1;ratioP1;P1;durP2;ratioP2;P2;SDS_P1;SDS_P2;PMS_P1;PMS_P2;Temp;Humidity;BMP_temperature;BMP_pressure;BME280_temperature;BME280_humidity;BME280_pressure;Samples;Min_cycle;Max_cycle;Signal;HPM_P1;HPM_P2
2021/03/20 00:00:33;;;;;;;5.60;3.10;;;6.00;99.90;;;;;;4132928;28;20038;-68
2021/03/20 00:02:34;;;;;;;6.35;3.55;;;6.00;99.90;;;;;;4138354;28;20574;-68
2021/03/20 00:04:35;;;;;;;5.63;3.58;;;6.00;99.90;;;;;;4120200;28;20049;-68
2021/03/20 00:06:40;;;;;;;5.00;3.50;;;5.90;99.90;;;;;;4132723;28;20034;-68
2021/03/20 00:08:43;;;;;;;8.55;3.83;;;5.90;99.90;;;;;;4137534;28;20061;-68
2021/03/20 00:10:44;;;;;;;5.30;4.03;;;5.90;99.90;;;;;;4131534;28;20118;-68
2021/03/20 00:12:47;;;;;;;6.35;4.25;;;5.80;99.90;;;;;;4116286;28;20042;-68
2021/03/20 00:14:47;;;;;;;6.00;4.20;;;5.80;99.90;;;;;;4129046;28;20426;-69
2021/03/20 00:16:49;;;;;;;6.47;4.22;;;5.70;99.90;;;;;;4139494;28;20033;-68
2021/03/20 00:18:50;;;;;;;3.95;3.03;;;5.60;99.90;;;;;;4141001;28;20045;-68
2021/03/20 00:20:51;;;;;;;6.63;3.92;;;5.50;99.90;;;;;;4133916;28;20030;-68
2021/03/20 00:22:54;;;;;;;5.80;3.47;;;5.60;99.90;;;;;;4132175;28;20692;-68
2021/03/20 00:24:55;;;;;;;5.88;3.47;;;5.60;99.90;;;;;;4133612;28;20062;-68
2021/03/20 00:26:55;;;;;;;4.78;3.50;;;5.60;99.90;;;;;;4137346;28;20367;-68
2021/03/20 00:28:56;;;;;;;4.78;3.60;;;5.60;99.90;;;;;;4134672;28;20022;-68
2021/03/20 00:31:04;;;;;;;6.28;3.70;;;5.70;99.90;;;;;;4135028;28;20069;-69
2021/03/20 00:33:05;;;;;;;5.85;3.35;;;5.80;99.90;;;;;;4137253;28;20039;-68
2021/03/20 00:35:07;;;;;;;5.20;3.60;;;5.80;99.90;;;;;;4136745;28;20375;-68
2021/03/20 00:37:11;;;;;;;5.25;3.55;;;5.80;99.90;;;;;;4127447;28;20046;-68
2021/03/20 00:39:12;;;;;;;5.63;3.58;;;5.90;99.90;;;;;;4112403;28;20038;-69
2021/03/20 00:41:13;;;;;;;5.85;3.60;;;5.90;99.90;;;;;;4143373;28;20041;-68
2021/03/20 00:43:14;;;;;;;5.57;3.65;;;5.90;99.90;;;;;;4140766;28;20073;-68
2021/03/20 00:45:15;;;;;;;6.60;3.70;;;5.90;99.90;;;;;;4120486;28;20034;-68
2021/03/20 00:47:16;;;;;;;4.43;3.42;;;5.90;99.90;;;;;;4144318;28;20049;-68
2021/03/20 00:49:17;;;;;;;6.57;4.00;;;5.90;99.90;;;;;;4144662;28;20030;-68
2021/03/20 00:51:17;;;;;;;4.20;3.05;;;5.80;99.90;;;;;;4144160;28;20038;-68
2021/03/20 00:53:19;;;;;;;4.43;2.92;;;5.80;99.90;;;;;;4143276;28;20654;-69
2021/03/20 00:55:20;;;;;;;4.63;2.60;;;5.80;99.90;;;;;;4130339;28;20387;-68
2021/03/20 00:57:21;;;;;;;5.05;3.05;;;5.80;99.90;;;;;;4144423;28;20265;-68
2021/03/20 00:59:21;;;;;;;4.65;2.65;;;5.80;99.90;;;;;;4134871;28;20026;-68
2021/03/20 01:01:22;;;;;;;5.82;3.53;;;5.70;99.90;;;;;;4132523;28;20125;-68
2021/03/20 01:03:23;;;;;;;5.60;3.55;;;5.60;99.90;;;;;;4135645;28;20079;-68
2021/03/20 01:05:24;;;;;;;4.63;3.13;;;5.60;99.90;;;;;;4141250;28;20041;-68
2021/03/20 01:07:24;;;;;;;4.72;3.10;;;5.60;99.90;;;;;;4144950;28;20041;-68
2021/03/20 01:09:26;;;;;;;4.00;2.95;;;5.60;99.90;;;;;;4140921;28;20034;-68
2021/03/20 01:11:29;;;;;;;3.93;3.17;;;5.60;99.90;;;;;;4104501;28;20042;-68
2021/03/20 01:13:31;;;;;;;4.68;3.28;;;5.60;99.90;;;;;;4139782;28;20278;-68
2021/03/20 01:15:32;;;;;;;4.25;3.00;;;5.60;99.90;;;;;;4136449;28;20391;-68
2021/03/20 01:17:33;;;;;;;3.85;2.95;;;5.50;99.90;;;;;;4142521;28;20046;-68
2021/03/20 01:19:33;;;;;;;4.82;3.40;;;5.50;99.90;;;;;;4140113;28;20030;-68
2021/03/20 01:21:34;;;;;;;5.13;3.10;;;5.30;99.90;;;;;;4140123;28;20030;-68
2021/03/20 01:23:35;;;;;;;5.80;3.03;;;5.20;99.90;;;;;;4140354;28;20121;-68
2021/03/20 01:25:37;;;;;;;4.20;2.65;;;5.10;99.90;;;;;;4132299;28;20042;-68
2021/03/20 01:27:38;;;;;;;4.72;3.10;;;5.00;99.90;;;;;;4144341;28;20671;-68
2021/03/20 01:29:41;;;;;;;6.35;3.15;;;4.90;99.90;;;;;;4123139;28;20039;-68
2021/03/20 01:31:42;;;;;;;4.10;2.63;;;4.90;99.90;;;;;;4131663;28;20033;-68
2021/03/20 01:33:43;;;;;;;4.65;3.17;;;4.90;99.90;;;;;;4116211;28;20133;-68
2021/03/20 01:35:44;;;;;;;7.00;3.03;;;4.90;99.90;;;;;;4135044;28;20042;-68
2021/03/20 01:37:44;;;;;;;5.22;3.15;;;4.90;99.90;;;;;;4113913;28;20239;-68
2021/03/20 01:39:45;;;;;;;3.67;2.72;;;4.90;99.90;;;;;;4136667;28;20046;-68
2021/03/20 01:41:45;;;;;;;6.82;3.17;;;4.90;99.90;;;;;;4135971;28;20049;-68
2021/03/20 01:43:47;;;;;;;4.57;2.65;;;4.80;99.90;;;;;;4139589;28;20057;-68
2021/03/20 01:45:48;;;;;;;5.47;2.67;;;4.80;99.90;;;;;;4138639;28;20532;-68
2021/03/20 01:48:10;;;;;;;4.40;2.40;;;4.70;99.90;;;;;;4110813;28;20050;-68
2021/03/20 01:50:15;;;;;;;4.57;2.60;;;4.70;99.90;;;;;;4126071;28;20031;-69
2021/03/20 01:52:23;;;;;;;5.57;2.63;;;4.60;99.90;;;;;;4143629;28;20046;-68
2021/03/20 01:54:29;;;;;;;4.78;2.58;;;4.50;99.90;;;;;;4141456;28;20040;-68
2021/03/20 01:56:42;;;;;;;5.72;2.35;;;4.40;99.90;;;;;;4135668;28;20107;-68
2021/03/20 01:58:44;;;;;;;7.45;2.38;;;4.50;99.90;;;;;;4114004;28;20446;-68
2021/03/20 02:00:46;;;;;;;5.05;2.28;;;4.40;99.90;;;;;;4135471;28;20589;-68
2021/03/20 02:02:47;;;;;;;3.85;2.35;;;4.40;99.90;;;;;;4137556;28;20042;-69
2021/03/20 02:04:47;;;;;;;3.42;2.10;;;4.40;99.90;;;;;;4118099;28;20107;-68
2021/03/20 02:06:48;;;;;;;4.63;2.30;;;4.50;99.90;;;;;;4123828;28;20037;-68
2021/03/20 02:08:50;;;;;;;4.07;2.60;;;4.50;99.90;;;;;;4126216;28;20054;-69
2021/03/20 02:10:54;;;;;;;;;;;4.50;99.90;;;;;;4130723;28;20042;-68
2021/03/20 02:12:57;;;;;;;;;;;4.60;99.90;;;;;;4135379;28;20417;-68
2021/03/20 02:15:15;;;;;;;3.72;2.47;;;4.60;99.90;;;;;;4135153;28;20053;-68
2021/03/20 02:17:53;;;;;;;3.55;2.33;;;4.60;99.90;;;;;;4137124;28;20125;-68
2021/03/20 02:20:13;;;;;;;3.50;2.35;;;4.70;99.90;;;;;;4136931;28;20040;-68
2021/03/20 02:22:19;;;;;;;3.90;2.35;;;4.70;99.90;;;;;;4118167;28;20455;-68
2021/03/20 02:24:20;;;;;;;3.30;2.28;;;4.70;99.90;;;;;;4142697;28;20092;-68
2021/03/20 02:26:57;;;;;;;3.33;2.10;;;4.70;99.90;;;;;;4118370;28;20105;-68
2021/03/20 02:29:19;;;;;;;3.90;2.30;;;4.60;99.90;;;;;;4142638;28;20037;-68
2021/03/20 02:31:34;;;;;;;3.23;1.80;;;4.60;99.90;;;;;;4130041;28;20046;-68
2021/03/20 02:34:04;;;;;;;2.85;1.98;;;4.60;99.90;;;;;;4142835;28;20953;-68
2021/03/20 02:36:14;;;;;;;1.70;1.40;;;4.60;99.90;;;;;;4121659;28;20081;-68
2021/03/20 02:38:26;;;;;;;2.42;1.83;;;4.60;99.90;;;;;;4126020;28;20042;-68
2021/03/20 02:40:29;;;;;;;2.33;1.85;;;4.60;99.90;;;;;;4122046;28;20035;-68
2021/03/20 02:42:47;;;;;;;2.83;1.65;;;4.60;99.90;;;;;;4130432;28;20706;-68
2021/03/20 02:44:50;;;;;;;2.40;1.70;;;4.50;99.90;;;;;;4112512;28;20395;-68
2021/03/20 02:47:00;;;;;;;2.67;1.50;;;4.50;99.90;;;;;;4137502;28;20042;-68
2021/03/20 02:49:10;;;;;;;3.42;1.70;;;4.50;99.90;;;;;;4141639;28;20057;-69
2021/03/20 02:51:57;;;;;;;2.83;1.50;;;4.40;99.90;;;;;;4130343;28;20055;-69
2021/03/20 02:54:26;;;;;;;1.83;1.27;;;4.40;99.90;;;;;;4133445;28;20041;-69
2021/03/20 02:56:39;;;;;;;1.65;1.45;;;4.40;99.90;;;;;;4117278;28;20482;-68
2021/03/20 02:58:53;;;;;;;2.45;1.58;;;4.40;99.90;;;;;;4139522;28;20036;-69
2021/03/20 03:00:57;;;;;;;2.42;1.40;;;4.40;99.90;;;;;;4136207;28;20042;-68
2021/03/20 03:03:01;;;;;;;1.55;1.23;;;4.30;99.90;;;;;;4133859;28;20087;-69
2021/03/20 03:05:15;;;;;;;3.45;1.73;;;4.30;99.90;;;;;;4109174;28;20039;-68
2021/03/20 03:07:24;;;;;;;2.78;1.50;;;4.30;99.90;;;;;;4119205;28;20081;-68
2021/03/20 03:09:54;;;;;;;2.42;1.55;;;4.30;99.90;;;;;;4120929;28;20057;-69
2021/03/20 03:12:30;;;;;;;2.70;1.50;;;4.30;99.90;;;;;;4089966;28;20058;-69
2021/03/20 03:14:37;;;;;;;1.92;1.45;;;4.30;99.90;;;;;;4119772;28;20046;-69
2021/03/20 03:16:50;;;;;;;2.00;1.60;;;4.30;99.90;;;;;;4125675;28;20764;-69
2021/03/20 03:18:55;;;;;;;2.22;1.52;;;4.30;99.90;;;;;;4117008;28;20129;-69
2021/03/20 03:20:59;;;;;;;3.15;1.75;;;4.20;99.90;;;;;;4120222;28;20101;-69
2021/03/20 03:23:15;;;;;;;2.28;1.70;;;4.20;99.90;;;;;;4133709;28;20525;-69
2021/03/20 03:25:20;;;;;;;2.35;1.50;;;4.20;99.90;;;;;;4120172;28;20042;-68
2021/03/20 03:27:24;;;;;;;2.13;1.50;;;4.20;99.90;;;;;;4134165;28;20057;-69
2021/03/20 03:29:28;;;;;;;2.85;1.63;;;4.20;99.90;;;;;;4109812;28;20058;-69
2021/03/20 03:31:45;;;;;;;2.00;1.40;;;4.20;99.90;;;;;;4137320;28;20123;-68
2021/03/20 03:34:00;;;;;;;2.53;1.85;;;4.20;99.90;;;;;;4133465;28;20069;-68
2021/03/20 03:36:07;;;;;;;2.30;1.60;;;4.10;99.90;;;;;;4126701;28;20030;-69
2021/03/20 03:38:07;;;;;;;2.53;1.50;;;4.10;99.90;;;;;;4134629;28;20030;-68
2021/03/20 03:40:16;;;;;;;2.95;1.85;;;4.00;99.90;;;;;;4140588;28;20030;-69
2021/03/20 03:42:20;;;;;;;2.55;1.40;;;4.00;99.90;;;;;;4130422;28;20041;-69
2021/03/20 03:44:21;;;;;;;3.03;1.88;;;4.00;99.90;;;;;;4108719;28;20110;-68
2021/03/20 03:46:35;;;;;;;3.67;2.05;;;4.00;99.90;;;;;;4124110;28;20035;-69
2021/03/20 03:48:36;;;;;;;3.08;1.85;;;3.90;99.90;;;;;;4141591;28;20040;-69
2021/03/20 03:50:42;;;;;;;2.28;1.40;;;3.90;99.90;;;;;;4138493;28;20033;-69
2021/03/20 03:52:44;;;;;;;2.25;1.73;;;3.90;99.90;;;;;;4131418;28;20049;-68
2021/03/20 03:54:45;;;;;;;2.78;1.52;;;3.90;99.90;;;;;;4124964;28;20042;-69
2021/03/20 03:56:56;;;;;;;2.25;1.38;;;3.90;99.90;;;;;;4136885;28;20031;-68
2021/03/20 03:59:17;;;;;;;1.88;1.35;;;3.90;99.90;;;;;;4141571;28;20030;-68
2021/03/20 04:01:27;;;;;;;2.33;1.50;;;3.90;99.90;;;;;;4143607;28;20061;-69
2021/03/20 04:03:44;;;;;;;3.13;1.83;;;3.90;99.90;;;;;;4139143;28;20531;-69
2021/03/20 04:06:08;;;;;;;3.10;1.83;;;3.90;99.90;;;;;;4145255;28;20053;-68
2021/03/20 04:08:15;;;;;;;1.98;1.40;;;3.80;99.90;;;;;;4137227;28;20493;-68
2021/03/20 04:10:33;;;;;;;3.42;1.77;;;3.70;99.90;;;;;;4144393;28;20044;-68
2021/03/20 04:12:36;;;;;;;3.40;1.70;;;3.60;99.90;;;;;;4119988;28;20046;-69
2021/03/20 04:14:42;;;;;;;1.90;1.58;;;3.40;99.90;;;;;;4122430;28;20487;-69
2021/03/20 04:17:00;;;;;;;2.42;1.75;;;3.40;99.90;;;;;;4140936;28;20114;-68
2021/03/20 04:19:10;;;;;;;2.60;1.60;;;3.40;99.90;;;;;;4144116;28;20037;-69
2021/03/20 04:21:29;;;;;;;2.55;1.55;;;3.30;99.90;;;;;;4126764;28;20065;-68
2021/03/20 04:23:34;;;;;;;1.90;1.52;;;3.20;99.90;;;;;;4137868;28;20030;-68
2021/03/20 04:25:55;;;;;;;3.80;1.90;;;3.20;99.90;;;;;;4144941;28;20076;-68
2021/03/20 04:28:14;;;;;;;2.85;1.73;;;3.20;99.90;;;;;;4121374;28;20574;-68
2021/03/20 04:30:22;;;;;;;2.00;1.40;;;3.20;99.90;;;;;;4127061;28;20049;-69
2021/03/20 04:32:28;;;;;;;2.40;1.73;;;3.20;99.90;;;;;;4135220;28;20109;-68
2021/03/20 04:34:48;;;;;;;2.75;1.65;;;3.20;99.90;;;;;;4128097;28;20566;-68
2021/03/20 04:37:04;;;;;;;3.47;2.10;;;3.30;99.90;;;;;;4144738;28;20034;-68
2021/03/20 04:39:08;;;;;;;4.05;1.90;;;3.20;99.90;;;;;;4136750;28;20053;-69
2021/03/20 04:41:10;;;;;;;2.67;1.40;;;3.20;99.90;;;;;;4144827;28;20034;-69
2021/03/20 04:43:14;;;;;;;2.63;1.85;;;3.20;99.90;;;;;;4123748;28;20706;-68
2021/03/20 04:46:03;;;;;;;2.45;1.50;;;3.20;99.90;;;;;;4111589;28;20042;-68
2021/03/20 04:48:12;;;;;;;2.38;1.40;;;3.20;99.90;;;;;;4078255;29;20444;-69
2021/03/20 04:50:25;;;;;;;2.55;1.52;;;3.30;99.90;;;;;;4077380;29;20042;-69
2021/03/20 04:52:32;;;;;;;2.38;1.42;;;3.30;99.90;;;;;;4089478;28;20073;-69
2021/03/20 04:54:33;;;;;;;1.60;1.35;;;3.30;99.90;;;;;;4140665;28;20045;-69
2021/03/20 04:56:41;;;;;;;2.95;1.48;;;3.30;99.90;;;;;;4137597;28;20046;-68
2021/03/20 04:58:44;;;;;;;3.20;1.77;;;3.30;99.90;;;;;;4136484;28;20092;-68
2021/03/20 05:00:47;;;;;;;2.75;1.80;;;3.30;99.90;;;;;;4095465;28;20578;-68
2021/03/20 05:03:17;;;;;;;3.80;1.88;;;3.30;99.90;;;;;;4136234;28;20037;-69
2021/03/20 05:05:47;;;;;;;2.92;1.75;;;3.30;99.90;;;;;;4135401;28;20046;-68
2021/03/20 05:07:48;;;;;;;2.35;1.65;;;3.20;99.90;;;;;;4121327;28;20050;-69
2021/03/20 05:09:57;;;;;;;2.58;1.52;;;3.20;99.90;;;;;;4118418;28;20035;-69
2021/03/20 05:12:26;;;;;;;4.68;1.73;;;3.20;99.90;;;;;;4133959;28;20030;-69
2021/03/20 05:14:41;;;;;;;2.35;1.73;;;3.30;99.90;;;;;;4132480;28;20057;-69
2021/03/20 05:16:49;;;;;;;3.28;1.92;;;3.30;99.90;;;;;;4117261;28;20125;-69
2021/03/20 05:18:51;;;;;;;3.65;2.28;;;3.30;99.90;;;;;;4136813;28;20384;-68
2021/03/20 05:20:52;;;;;;;2.33;1.70;;;3.30;99.90;;;;;;4136652;28;20050;-69
2021/03/20 05:22:53;;;;;;;5.97;2.33;;;3.20;99.90;;;;;;4120786;28;20423;-69
2021/03/20 05:24:56;;;;;;;4.65;2.00;;;3.20;99.90;;;;;;4118678;28;20082;-69
2021/03/20 05:26:58;;;;;;;5.07;2.35;;;3.20;99.90;;;;;;4116365;28;20549;-69
2021/03/20 05:28:59;;;;;;;4.10;2.17;;;3.20;99.90;;;;;;4136210;28;20066;-69
2021/03/20 05:31:03;;;;;;;2.85;2.17;;;3.20;99.90;;;;;;4137107;28;20034;-68
2021/03/20 05:33:04;;;;;;;4.10;1.98;;;3.20;99.90;;;;;;4137362;28;20035;-68
2021/03/20 05:35:10;;;;;;;4.18;2.53;;;3.10;99.90;;;;;;4135445;28;20046;-69
2021/03/20 05:37:33;;;;;;;3.17;1.90;;;3.10;99.90;;;;;;4135071;28;20034;-69
2021/03/20 05:39:34;;;;;;;3.50;1.80;;;3.10;99.90;;;;;;4122551;28;20418;-69
2021/03/20 05:41:52;;;;;;;3.83;1.95;;;3.00;99.90;;;;;;4122165;28;21717;-69
2021/03/20 05:44:28;;;;;;;2.80;1.80;;;3.00;99.90;;;;;;4124206;28;20507;-69
2021/03/20 05:46:52;;;;;;;2.75;1.50;;;3.00;99.90;;;;;;4103208;28;20031;-69
2021/03/20 05:49:00;;;;;;;5.40;2.00;;;3.00;99.90;;;;;;4134613;28;20568;-69
2021/03/20 05:51:41;;;;;;;4.32;1.92;;;3.10;99.90;;;;;;4134368;28;20101;-69
2021/03/20 05:54:18;;;;;;;4.80;2.10;;;3.10;99.90;;;;;;4111938;28;20026;-69
2021/03/20 05:56:18;;;;;;;2.72;1.80;;;3.00;99.90;;;;;;4117787;28;20073;-69
2021/03/20 05:58:56;;;;;;;3.22;2.15;;;3.10;99.90;;;;;;4137625;28;20026;-68
2021/03/20 06:01:02;;;;;;;3.42;1.52;;;3.00;99.90;;;;;;4111690;28;20035;-68
2021/03/20 06:03:21;;;;;;;2.10;1.50;;;3.00;99.90;;;;;;4134338;28;20030;-69
2021/03/20 06:05:43;;;;;;;2.53;1.50;;;3.00;99.90;;;;;;4118039;28;20058;-68
2021/03/20 06:08:26;;;;;;;4.80;2.13;;;3.00;99.90;;;;;;4144097;28;20097;-69
2021/03/20 06:10:53;;;;;;;5.63;2.10;;;2.90;99.90;;;;;;4132340;28;20101;-68
2021/03/20 06:13:09;;;;;;;2.20;1.60;;;2.90;99.90;;;;;;4132501;28;20140;-67
2021/03/20 06:15:15;;;;;;;4.85;1.95;;;2.90;99.90;;;;;;4121822;28;20057;-67
2021/03/20 06:17:36;;;;;;;3.38;1.83;;;2.80;99.90;;;;;;4134004;28;20088;-67
2021/03/20 06:20:04;;;;;;;3.58;2.00;;;2.80;99.90;;;;;;4132425;28;20045;-68
2021/03/20 06:22:43;;;;;;;3.80;1.67;;;2.80;99.90;;;;;;4128673;28;20485;-68
2021/03/20 06:24:56;;;;;;;3.10;1.80;;;2.80;99.90;;;;;;4124441;28;20049;-68
2021/03/20 06:27:00;;;;;;;2.67;1.67;;;2.80;99.90;;;;;;4111585;28;20081;-67
2021/03/20 06:29:21;;;;;;;2.85;1.80;;;2.80;99.90;;;;;;4122637;28;20035;-68
2021/03/20 06:31:44;;;;;;;2.72;1.67;;;2.80;99.90;;;;;;4073037;28;20092;-68
2021/03/20 06:33:50;;;;;;;;;;;2.80;99.90;;;;;;4134610;28;20049;-68
2021/03/20 06:35:58;;;;;;;4.05;1.73;;;2.80;99.90;;;;;;4135249;28;19913;-68
2021/03/20 06:38:38;;;;;;;2.30;1.65;;;2.80;99.90;;;;;;4119644;28;20045;-68
2021/03/20 06:40:51;;;;;;;3.15;1.90;;;2.80;99.90;;;;;;4117300;28;20415;-68
2021/03/20 06:42:53;;;;;;;2.78;1.90;;;2.80;99.90;;;;;;4135446;28;20465;-68
2021/03/20 06:45:21;;;;;;;5.80;2.22;;;2.80;99.90;;;;;;4132653;28;20048;-68
2021/03/20 06:47:31;;;;;;;4.47;2.17;;;2.80;99.90;;;;;;4108524;28;20038;-67
2021/03/20 06:50:07;;;;;;;4.68;2.25;;;2.70;99.90;;;;;;4104149;28;20047;-67
2021/03/20 06:52:17;;;;;;;4.15;1.92;;;2.80;99.90;;;;;;4133421;28;20046;-68
2021/03/20 06:54:21;;;;;;;5.60;1.85;;;2.80;99.90;;;;;;4134336;28;20041;-67
2021/03/20 06:56:26;;;;;;;3.55;1.98;;;2.80;99.90;;;;;;4117174;28;20162;-67
2021/03/20 06:58:36;;;;;;;3.78;2.10;;;2.90;99.90;;;;;;4099575;28;20034;-67
2021/03/20 07:00:37;;;;;;;2.72;1.90;;;2.90;99.90;;;;;;4119003;28;20129;-68
2021/03/20 07:02:56;;;;;;;4.70;2.10;;;2.90;99.90;;;;;;4134040;28;20049;-68
2021/03/20 07:05:16;;;;;;;3.42;1.88;;;2.90;99.90;;;;;;4135572;28;20104;-68
2021/03/20 07:07:34;;;;;;;3.05;2.00;;;2.90;99.90;;;;;;4133832;28;20030;-68
2021/03/20 07:09:40;;;;;;;3.85;1.80;;;3.00;99.90;;;;;;4139135;28;20038;-68
2021/03/20 07:11:43;;;;;;;4.20;1.90;;;3.00;99.90;;;;;;4112821;28;20086;-67
2021/03/20 07:13:46;;;;;;;3.08;2.10;;;3.00;99.90;;;;;;4136546;28;20040;-68
2021/03/20 07:16:04;;;;;;;4.55;2.20;;;3.00;99.90;;;;;;4132242;28;20053;-69
2021/03/20 07:18:45;;;;;;;2.92;2.00;;;3.00;99.90;;;;;;4137029;28;20030;-69
2021/03/20 07:20:45;;;;;;;4.50;2.22;;;3.00;99.90;;;;;;4128324;28;20037;-68
2021/03/20 07:22:49;;;;;;;3.40;2.15;;;3.10;99.90;;;;;;4134015;28;20130;-68
2021/03/20 07:24:50;;;;;;;4.85;2.53;;;3.10;99.90;;;;;;4137804;28;20474;-68
2021/03/20 07:26:54;;;;;;;3.65;2.25;;;3.20;99.90;;;;;;4141488;28;20038;-69
2021/03/20 07:28:58;;;;;;;5.63;2.30;;;3.20;99.90;;;;;;4142018;28;20038;-68
2021/03/20 07:30:59;;;;;;;4.78;2.50;;;3.30;99.90;;;;;;4137987;28;20465;-68
2021/03/20 07:32:59;;;;;;;5.22;2.45;;;3.20;99.90;;;;;;4138866;28;20096;-68
2021/03/20 07:35:23;;;;;;;5.10;2.80;;;3.30;99.90;;;;;;4110535;28;20601;-68
2021/03/20 07:37:29;;;;;;;4.38;2.45;;;3.30;99.90;;;;;;4136129;28;20109;-68
2021/03/20 07:39:43;;;;;;;3.80;2.35;;;3.30;99.90;;;;;;4115626;28;20035;-69
2021/03/20 07:42:02;;;;;;;4.43;2.35;;;3.30;99.90;;;;;;4130955;28;20034;-68
2021/03/20 07:44:03;;;;;;;4.75;2.20;;;3.30;99.90;;;;;;4123974;28;20042;-70
2021/03/20 07:46:17;;;;;;;5.97;2.47;;;3.40;99.90;;;;;;4144368;28;20049;-70
2021/03/20 07:48:28;;;;;;;7.45;2.75;;;3.40;99.90;;;;;;4142889;28;20042;-69
2021/03/20 07:50:59;;;;;;;4.70;2.83;;;3.40;99.90;;;;;;4131968;28;20080;-69
2021/03/20 07:53:26;;;;;;;4.25;2.38;;;3.50;99.90;;;;;;4141401;28;20049;-69
2021/03/20 07:55:29;;;;;;;3.63;2.03;;;3.60;99.90;;;;;;4137763;28;20034;-69
2021/03/20 07:57:30;;;;;;;5.38;2.40;;;3.60;99.90;;;;;;4144462;28;20042;-69
2021/03/20 07:59:32;;;;;;;4.38;2.40;;;3.60;99.90;;;;;;4137643;28;20058;-69
2021/03/20 08:01:35;;;;;;;4.53;2.60;;;3.60;99.90;;;;;;4106018;28;20047;-69
2021/03/20 08:03:50;;;;;;;3.97;2.10;;;3.80;99.90;;;;;;4134327;28;20495;-69
2021/03/20 08:05:51;;;;;;;4.95;2.83;;;3.90;99.90;;;;;;4136990;28;20088;-69
2021/03/20 08:07:53;;;;;;;5.53;2.22;;;4.00;99.90;;;;;;4134159;28;20042;-69
2021/03/20 08:10:24;;;;;;;4.30;2.50;;;4.20;99.90;;;;;;4140463;28;20038;-70
2021/03/20 08:12:25;;;;;;;5.85;2.53;;;4.30;99.90;;;;;;4141639;28;20060;-70
2021/03/20 08:14:51;;;;;;;3.80;2.45;;;4.30;99.90;;;;;;4126260;28;20027;-70
2021/03/20 08:16:51;;;;;;;2.65;2.13;;;4.40;99.90;;;;;;4142705;28;20041;-70
2021/03/20 08:18:55;;;;;;;4.78;2.53;;;4.40;99.90;;;;;;4144358;28;20041;-70
2021/03/20 08:20:58;;;;;;;4.88;2.50;;;4.50;99.90;;;;;;4142644;28;20068;-70
2021/03/20 08:23:11;;;;;;;3.92;2.70;;;4.40;99.90;;;;;;4144458;28;20556;-70
2021/03/20 08:25:50;;;;;;;6.80;2.72;;;4.50;99.90;;;;;;4122208;28;20093;-70
2021/03/20 08:28:10;;;;;;;4.85;2.78;;;4.70;99.90;;;;;;4053977;29;20399;-70
2021/03/20 08:30:28;;;;;;;4.40;2.47;;;4.90;99.90;;;;;;4030463;29;20689;-70
2021/03/20 08:32:54;;;;;;;7.53;2.90;;;5.00;99.90;;;;;;4061593;28;20136;-68
2021/03/20 08:35:22;;;;;;;5.68;2.58;;;5.20;99.90;;;;;;4120342;28;20038;-68
2021/03/20 08:38:01;;;;;;;4.05;2.30;;;5.20;99.90;;;;;;4123810;28;20091;-68
2021/03/20 08:40:20;;;;;;;5.15;2.60;;;5.30;99.90;;;;;;4140981;28;20641;-67
2021/03/20 08:42:27;;;;;;;3.80;2.10;;;5.30;99.90;;;;;;4135359;28;20042;-68
2021/03/20 08:44:28;;;;;;;3.78;2.40;;;5.30;99.90;;;;;;4138361;28;20062;-68
2021/03/20 08:47:00;;;;;;;4.82;2.40;;;5.20;99.90;;;;;;4133834;28;20542;-68
2021/03/20 08:49:06;;;;;;;6.43;2.10;;;5.20;99.90;;;;;;4112884;28;20658;-68
2021/03/20 08:51:44;;;;;;;4.38;2.13;;;5.30;99.90;;;;;;4137535;28;20504;-67
2021/03/20 08:53:56;;;;;;;2.80;1.83;;;5.30;99.90;;;;;;4121455;28;20034;-67
2021/03/20 08:56:06;;;;;;;5.93;2.40;;;5.40;99.90;;;;;;4120332;28;20042;-68
2021/03/20 08:58:35;;;;;;;3.88;2.08;;;5.70;99.90;;;;;;4121509;28;20041;-67
2021/03/20 09:00:58;;;;;;;2.67;1.50;;;5.90;99.90;;;;;;4119044;28;20034;-68
2021/03/20 09:03:06;;;;;;;4.15;1.83;;;6.10;99.90;;;;;;4129616;28;20530;-67
2021/03/20 09:05:11;;;;;;;3.55;1.98;;;6.40;99.90;;;;;;4128999;28;20419;-67
2021/03/20 09:07:24;;;;;;;4.47;1.45;;;6.50;99.90;;;;;;4133593;28;21411;-67
2021/03/20 09:09:28;;;;;;;5.85;2.05;;;6.70;99.90;;;;;;4123731;28;20040;-67
2021/03/20 09:11:37;;;;;;;3.88;1.95;;;6.80;99.90;;;;;;4134131;28;20516;-67
2021/03/20 09:13:46;;;;;;;2.72;1.58;;;6.80;99.90;;;;;;4136796;28;20674;-67
2021/03/20 09:15:54;;;;;;;4.20;1.95;;;6.90;99.90;;;;;;4138296;28;20441;-67
2021/03/20 09:17:58;;;;;;;4.18;1.88;;;7.00;99.90;;;;;;4142302;28;20466;-67
2021/03/20 09:20:17;;;;;;;5.63;2.03;;;7.10;99.90;;;;;;4141397;28;20058;-67
2021/03/20 09:22:24;;;;;;;2.78;1.58;;;7.20;99.90;;;;;;4133869;28;20042;-67
2021/03/20 09:24:29;;;;;;;3.92;1.83;;;7.30;99.90;;;;;;4127131;28;20066;-67
2021/03/20 09:26:41;;;;;;;6.63;1.67;;;7.50;99.90;;;;;;4130886;28;20085;-67
2021/03/20 09:28:51;;;;;;;3.63;1.90;;;7.30;98.30;;;;;;4139955;28;20052;-67
2021/03/20 09:30:55;;;;;;;3.38;1.73;;;7.30;97.80;;;;;;4115956;28;20123;-67
2021/03/20 09:32:56;;;;;;;2.95;1.98;;;7.10;93.00;;;;;;4139077;28;20030;-67
2021/03/20 09:34:58;;;;;;;3.47;2.17;;;7.10;99.90;;;;;;4125499;28;20520;-67
2021/03/20 09:37:06;;;;;;;4.05;1.92;;;7.20;96.80;;;;;;4143713;28;20026;-67
2021/03/20 09:39:11;;;;;;;4.15;1.60;;;7.10;99.90;;;;;;4126715;28;20041;-67
2021/03/20 09:41:14;;;;;;;3.22;1.60;;;7.10;89.80;;;;;;4132265;28;20096;-67
2021/03/20 09:43:19;;;;;;;3.60;1.65;;;7.00;88.80;;;;;;4137831;28;20046;-67
2021/03/20 09:45:28;;;;;;;5.72;1.80;;;7.10;93.90;;;;;;4143168;28;20061;-67
2021/03/20 09:47:30;;;;;;;5.22;2.00;;;7.20;94.30;;;;;;4125989;28;20038;-67
2021/03/20 09:49:30;;;;;;;2.15;1.48;;;7.10;85.00;;;;;;4140509;28;20038;-67
2021/03/20 09:51:49;;;;;;;3.60;1.50;;;7.00;78.00;;;;;;4143299;28;20069;-66
2021/03/20 09:53:50;;;;;;;4.53;1.90;;;6.90;91.90;;;;;;4142589;28;20038;-67
2021/03/20 09:55:51;;;;;;;6.82;2.00;;;6.80;77.90;;;;;;4138301;28;20562;-67
2021/03/20 09:57:52;;;;;;;2.80;1.40;;;6.90;89.60;;;;;;4140360;28;20042;-67
2021/03/20 09:59:54;;;;;;;4.57;1.52;;;7.10;92.40;;;;;;4121114;28;20446;-67
2021/03/20 10:01:59;;;;;;;2.72;1.48;;;7.10;80.50;;;;;;4142591;28;20034;-67
2021/03/20 10:04:00;;;;;;;2.83;1.63;;;7.20;91.40;;;;;;4137834;28;20037;-67
2021/03/20 10:06:12;;;;;;;2.85;1.70;;;7.50;94.10;;;;;;4138258;28;20474;-67
2021/03/20 10:08:20;;;;;;;4.10;1.65;;;7.60;75.70;;;;;;4133136;28;20036;-67
2021/03/20 10:10:21;;;;;;;3.85;1.73;;;7.40;65.60;;;;;;4135731;28;20498;-67
2021/03/20 10:12:56;;;;;;;2.40;1.48;;;7.50;76.60;;;;;;4137529;28;20038;-67
2021/03/20 10:15:03;;;;;;;2.95;1.55;;;7.50;64.90;;;;;;4136785;28;20041;-67
2021/03/20 10:17:18;;;;;;;2.55;1.58;;;7.60;73.70;;;;;;4140245;28;20121;-67
2021/03/20 10:19:18;;;;;;;2.78;1.38;;;7.70;85.50;;;;;;4129389;28;20065;-67
2021/03/20 10:21:27;;;;;;;3.55;1.63;;;7.80;80.10;;;;;;4142185;28;20030;-67
2021/03/20 10:23:33;;;;;;;1.25;1.00;;;8.00;72.00;;;;;;4142160;28;20042;-67
2021/03/20 10:25:35;;;;;;;3.05;1.63;;;8.20;71.80;;;;;;4126085;28;20042;-67
2021/03/20 10:27:48;;;;;;;2.33;1.30;;;8.20;67.10;;;;;;4153472;28;20082;-67
2021/03/20 10:29:48;;;;;;;2.50;1.40;;;8.30;73.10;;;;;;4121818;28;20039;-67
2021/03/20 10:31:52;;;;;;;2.17;1.25;;;8.40;69.90;;;;;;4141270;28;20458;-67
2021/03/20 10:34:10;;;;;;;4.28;1.30;;;8.50;68.00;;;;;;4142637;28;20026;-67
2021/03/20 10:36:14;;;;;;;3.42;1.25;;;8.70;74.90;;;;;;4135689;28;20100;-67
2021/03/20 10:38:14;;;;;;;3.47;1.50;;;8.80;66.10;;;;;;4138958;28;20172;-67
2021/03/20 10:40:22;;;;;;;2.28;1.30;;;8.80;71.20;;;;;;4118453;28;20494;-67
2021/03/20 10:42:35;;;;;;;2.15;1.38;;;8.90;69.80;;;;;;4135020;28;20030;-66
2021/03/20 10:44:40;;;;;;;2.70;1.30;;;9.00;70.60;;;;;;4134609;28;20104;-67
2021/03/20 10:46:41;;;;;;;1.77;1.30;;;9.00;66.90;;;;;;4117289;28;20065;-66
2021/03/20 10:48:42;;;;;;;3.42;1.88;;;9.00;76.90;;;;;;4141685;28;20038;-69
2021/03/20 10:50:46;;;;;;;2.25;1.35;;;9.10;69.30;;;;;;4122742;28;20037;-67
2021/03/20 10:52:47;;;;;;;4.00;1.48;;;9.00;62.90;;;;;;4120440;28;20048;-67
2021/03/20 10:54:53;;;;;;;1.73;1.10;;;9.00;67.50;;;;;;4127783;28;20039;-67
2021/03/20 10:57:00;;;;;;;3.00;1.52;;;9.10;67.30;;;;;;4131218;28;20101;-67
2021/03/20 10:59:13;;;;;;;2.15;1.15;;;9.10;66.00;;;;;;4129865;28;20033;-67
2021/03/20 11:01:15;;;;;;;1.67;1.25;;;9.20;63.40;;;;;;4134327;28;20036;-67
2021/03/20 11:03:22;;;;;;;3.78;1.70;;;9.20;63.30;;;;;;4132814;28;20034;-67
2021/03/20 11:05:30;;;;;;;1.83;1.10;;;9.30;64.10;;;;;;4135872;28;20042;-67
2021/03/20 11:07:31;;;;;;;2.70;1.33;;;9.30;59.50;;;;;;4134489;28;20026;-67
2021/03/20 11:09:32;;;;;;;3.22;1.48;;;9.40;65.20;;;;;;4140538;28;20552;-67
2021/03/20 11:11:35;;;;;;;2.58;1.20;;;9.50;65.60;;;;;;4137643;28;20047;-67
2021/03/20 11:13:49;;;;;;;2.78;1.45;;;9.40;60.40;;;;;;4115360;28;20038;-67
2021/03/20 11:15:51;;;;;;;4.18;1.45;;;9.40;60.20;;;;;;4134115;28;20153;-67
2021/03/20 11:17:55;;;;;;;3.30;1.40;;;9.40;57.50;;;;;;4116506;28;20054;-67
2021/03/20 11:20:06;;;;;;;2.05;1.30;;;9.10;52.90;;;;;;4134034;28;20030;-67
2021/03/20 11:22:16;;;;;;;3.78;1.60;;;8.80;51.60;;;;;;4137827;28;20085;-67
2021/03/20 11:24:32;;;;;;;2.15;1.60;;;8.60;54.90;;;;;;4136256;28;20026;-67